Station Historical Data
Daily Summary for April 10, 2017 Units:  Both    English   Metric
« Previous Day
Next Day »
Daily Weekly Monthly Yearly Custom
  High: Low: Average:
Temperature: 80.8 °F /  27.1 °C 49.1 °F /  9.5 °C 63.8 °F /  17.7 °C
Dew Point: 49.9 °F /  9.9 °C 20.5 °F /  -6.4 °C 38.3 °F /  3.5 °C
Humidity: 82% 27% 41%
Wind Speed: 2.0mph /  3.2km/h - 0.1mph /  0.2km/h
Wind Gust: 5.0mph /  8km/h - -
Wind- - West
Pressure: 30.30 in /  1026 hPa 30.01 in /  1016.1 hPa -
Precipitation: 0.02 in /  0.51 mm    
Historical Graphs
 
 
Tabular Data for April 10, 2017
Time Temperature Dew Point Pressure Wind Wind Speed Wind Gust Humidity Rainfall Rate (Hourly) Conditions
00:00 57.2 °F /  14 °C 40.7 °F /  4.8 °C 30.19in /  1022.2hPa Calm     54% 0.00in /  0mm RA
00:15 56.6 °F /  13.7 °C 40.1 °F /  4.5 °C 30.19in /  1022.2hPa Calm     54% 0.00in /  0mm SCT
00:30 55.8 °F /  13.2 °C 41.7 °F /  5.4 °C 30.20in /  1022.6hPa Calm     59% 0.00in /  0mm SCT
00:45 55.2 °F /  12.9 °C 41.5 °F /  5.3 °C 30.20in /  1022.6hPa Calm     60% 0.00in /  0mm SCT
01:00 55.9 °F /  13.3 °C 41.3 °F /  5.2 °C 30.20in /  1022.6hPa Calm     58% 0.00in /  0mm SCT
01:15 54.9 °F /  12.7 °C 25.5 °F /  -3.6 °C 30.20in /  1022.6hPa Calm     32% 0.00in /  0mm SCT
01:30 52.9 °F /  11.6 °C 23.8 °F /  -4.6 °C 30.20in /  1022.6hPa Calm     32% 0.00in /  0mm SCT
01:45 52.3 °F /  11.3 °C 23.3 °F /  -4.8 °C 30.20in /  1022.6hPa Calm     32% 0.00in /  0mm SCT
02:00 51.2 °F /  10.7 °C 22.3 °F /  -5.4 °C 30.21in /  1022.9hPa Calm     32% 0.00in /  0mm SCT
02:15 50.6 °F /  10.3 °C 21.7 °F /  -5.7 °C 30.19in /  1022.2hPa Calm     32% 0.00in /  0mm SCT
02:30 50.3 °F /  10.2 °C 21.6 °F /  -5.8 °C 30.20in /  1022.6hPa Calm     32% 0.00in /  0mm SCT
02:45 49.9 °F /  9.9 °C 21.2 °F /  -6 °C 30.20in /  1022.6hPa Calm     32% 0.00in /  0mm SCT
03:00 49.7 °F /  9.8 °C 21.0 °F /  -6.1 °C 30.20in /  1022.6hPa Calm     32% 0.00in /  0mm SCT
03:15 49.4 °F /  9.7 °C 20.8 °F /  -6.2 °C 30.20in /  1022.6hPa Calm     32% 0.00in /  0mm SCT
03:30 49.4 °F /  9.7 °C 20.7 °F /  -6.3 °C 30.20in /  1022.6hPa Calm     32% 0.00in /  0mm SCT
03:45 49.3 °F /  9.6 °C 20.7 °F /  -6.3 °C 30.20in /  1022.6hPa Calm     32% 0.00in /  0mm SCT
04:00 49.3 °F /  9.6 °C 20.6 °F /  -6.3 °C 30.21in /  1022.9hPa Calm     32% 0.00in /  0mm SCT
04:15 49.2 °F /  9.6 °C 20.6 °F /  -6.3 °C 30.21in /  1022.9hPa Calm     32% 0.00in /  0mm SCT
04:30 49.2 °F /  9.6 °C 20.6 °F /  -6.3 °C 30.21in /  1022.9hPa Calm     32% 0.00in /  0mm SCT
04:45 49.2 °F /  9.6 °C 20.5 °F /  -6.4 °C 30.19in /  1022.2hPa Calm     32% 0.00in /  0mm SCT
05:00 49.2 °F /  9.6 °C 20.5 °F /  -6.4 °C 30.21in /  1022.9hPa Calm     32% 0.00in /  0mm SCT
05:15 49.1 °F /  9.5 °C 20.5 °F /  -6.4 °C 30.22in /  1023.2hPa Calm     32% 0.00in /  0mm SCT
05:30 49.1 °F /  9.5 °C 20.5 °F /  -6.4 °C 30.20in /  1022.6hPa Calm     32% 0.00in /  0mm SCT
05:45 49.1 °F /  9.5 °C 20.5 °F /  -6.4 °C 30.23in /  1023.6hPa Calm     32% 0.00in /  0mm SCT
06:00 49.1 °F /  9.5 °C 20.5 °F /  -6.4 °C 30.23in /  1023.6hPa Calm     32% 0.00in /  0mm SCT
06:15 49.1 °F /  9.5 °C 20.5 °F /  -6.4 °C 30.14in /  1020.5hPa Calm     32% 0.00in /  0mm SCT
06:30 49.1 °F /  9.5 °C 20.5 °F /  -6.4 °C 30.24in /  1023.9hPa Calm     32% 0.00in /  0mm SCT
06:45 49.1 °F /  9.5 °C 20.5 °F /  -6.4 °C 30.25in /  1024.3hPa Calm     32% 0.00in /  0mm SCT
07:00 49.1 °F /  9.5 °C 20.5 °F /  -6.4 °C 30.25in /  1024.3hPa Calm     32% 0.00in /  0mm SCT
07:15 49.1 °F /  9.5 °C 20.5 °F /  -6.4 °C 30.25in /  1024.3hPa Calm     32% 0.00in /  0mm SCT
07:30 49.1 °F /  9.5 °C 20.5 °F /  -6.4 °C 30.26in /  1024.6hPa Calm     32% 0.00in /  0mm SCT
07:45 49.1 °F /  9.5 °C 20.5 °F /  -6.4 °C 30.26in /  1024.6hPa Calm     32% 0.00in /  0mm SCT
08:00 49.1 °F /  9.5 °C 20.5 °F /  -6.4 °C 30.27in /  1024.9hPa Calm     32% 0.00in /  0mm SCT
08:15 50.2 °F /  10.1 °C 44.9 °F /  7.2 °C 30.28in /  1025.3hPa Calm     82% 0.00in /  0mm SCT
08:30 51.8 °F /  11 °C 45.8 °F /  7.7 °C 30.28in /  1025.3hPa Calm     80% 0.00in /  0mm SCT
08:45 53.6 °F /  12 °C 46.5 °F /  8.1 °C 30.29in /  1025.6hPa Calm     77% 0.00in /  0mm SCT
09:00 55.2 °F /  12.9 °C 47.4 °F /  8.6 °C 30.29in /  1025.6hPa Calm   2.0mph /  3.2km/h 75% 0.00in /  0mm SCT
09:15 57.0 °F /  13.9 °C 47.7 °F /  8.7 °C 30.29in /  1025.6hPa Calm   2.0mph /  3.2km/h 71% 0.00in /  0mm SCT
09:30 57.7 °F /  14.3 °C 48.0 °F /  8.9 °C 30.29in /  1025.6hPa Calm   2.0mph /  3.2km/h 70% 0.00in /  0mm SCT
09:45 60.0 °F /  15.6 °C 48.6 °F /  9.2 °C 30.29in /  1025.6hPa Calm   1.0mph /  1.6km/h 66% 0.00in /  0mm SCT
10:00 62.5 °F /  16.9 °C 48.9 °F /  9.4 °C 30.29in /  1025.6hPa Calm   2.0mph /  3.2km/h 61% 0.00in /  0mm SCT
10:15 65.0 °F /  18.3 °C 49.9 °F /  9.9 °C 30.29in /  1025.6hPa Calm   1.0mph /  1.6km/h 58% 0.00in /  0mm SCT
10:30 65.9 °F /  18.8 °C 49.8 °F /  9.9 °C 30.30in /  1026hPa Calm   2.0mph /  3.2km/h 56% 0.00in /  0mm SCT
10:45 67.2 °F /  19.6 °C 47.9 °F /  8.8 °C 30.30in /  1026hPa Calm   3.0mph /  4.8km/h 50% 0.00in /  0mm SCT
11:00 68.9 °F /  20.5 °C 47.9 °F /  8.8 °C 30.30in /  1026hPa Calm   3.0mph /  4.8km/h 47% 0.00in /  0mm SCT
11:15 70.7 °F /  21.5 °C 48.3 °F /  9.1 °C 30.30in /  1026hPa Calm   3.0mph /  4.8km/h 45% 0.00in /  0mm SCT
11:30 72.1 °F /  22.3 °C 47.8 °F /  8.8 °C 30.30in /  1026hPa NW 1.0mph /  1.6km/h 2.0mph /  3.2km/h 42% 0.00in /  0mm SCT
11:45 73.0 °F /  22.8 °C 49.2 °F /  9.6 °C 30.30in /  1026hPa Calm   3.0mph /  4.8km/h 43% 0.00in /  0mm SCT
12:00 73.9 °F /  23.3 °C 46.7 °F /  8.2 °C 30.30in /  1026hPa Calm   3.0mph /  4.8km/h 38% 0.00in /  0mm SCT
12:15 75.5 °F /  24.2 °C 46.7 °F /  8.2 °C 30.30in /  1026hPa Calm   3.0mph /  4.8km/h 36% 0.00in /  0mm SCT
12:30 77.4 °F /  25.2 °C 43.5 °F /  6.4 °C 30.29in /  1025.6hPa Calm   5.0mph /  8km/h 30% 0.00in /  0mm SCT
12:45 78.2 °F /  25.7 °C 45.9 °F /  7.7 °C 30.29in /  1025.6hPa NW 1.0mph /  1.6km/h 5.0mph /  8km/h 32% 0.00in /  0mm SCT
13:00 78.1 °F /  25.6 °C 44.1 °F /  6.7 °C 30.28in /  1025.3hPa Calm   3.0mph /  4.8km/h 30% 0.00in /  0mm SCT
13:15 79.0 °F /  26.1 °C 47.4 °F /  8.6 °C 30.28in /  1025.3hPa Calm   2.0mph /  3.2km/h 33% 0.00in /  0mm SCT
13:30 79.1 °F /  26.2 °C 45.0 °F /  7.2 °C 30.27in /  1024.9hPa WNW 2.0mph /  3.2km/h 3.0mph /  4.8km/h 30% 0.00in /  0mm SCT
13:45 78.7 °F /  25.9 °C 49.5 °F /  9.7 °C 30.27in /  1024.9hPa Calm   5.0mph /  8km/h 36% 0.02in /  0.51mm SCT
14:15 79.6 °F /  26.4 °C 44.5 °F /  6.9 °C 30.26in /  1024.6hPa Calm   2.0mph /  3.2km/h 29% 0.00in /  0mm SCT
14:30 80.8 °F /  27.1 °C 44.6 °F /  7 °C 30.01in /  1016.1hPa NW 1.0mph /  1.6km/h 3.0mph /  4.8km/h 28% 0.00in /  0mm SCT
14:45 79.5 °F /  26.4 °C 43.5 °F /  6.4 °C 30.25in /  1024.3hPa NE 1.0mph /  1.6km/h 3.0mph /  4.8km/h 28% 0.00in /  0mm SCT
15:00 79.5 °F /  26.4 °C 44.5 °F /  6.9 °C 30.24in /  1023.9hPa Calm   3.0mph /  4.8km/h 29% 0.00in /  0mm SCT
15:15 78.9 °F /  26.1 °C 42.1 °F /  5.6 °C 30.24in /  1023.9hPa Calm   2.0mph /  3.2km/h 27% 0.00in /  0mm SCT
15:30 78.6 °F /  25.9 °C 41.8 °F /  5.4 °C 30.23in /  1023.6hPa WNW 1.0mph /  1.6km/h 5.0mph /  8km/h 27% 0.00in /  0mm SCT
15:45 78.9 °F /  26.1 °C 43.0 °F /  6.1 °C 30.23in /  1023.6hPa Calm   3.0mph /  4.8km/h 28% 0.00in /  0mm SCT
16:00 78.6 °F /  25.9 °C 43.7 °F /  6.5 °C 30.22in /  1023.2hPa Calm   3.0mph /  4.8km/h 29% 0.00in /  0mm SCT
16:15 78.7 °F /  25.9 °C 45.5 °F /  7.5 °C 30.22in /  1023.2hPa Calm   2.0mph /  3.2km/h 31% 0.00in /  0mm SCT
16:30 78.4 °F /  25.8 °C 43.5 °F /  6.4 °C 30.22in /  1023.2hPa Calm   2.0mph /  3.2km/h 29% 0.00in /  0mm SCT
16:45 78.3 °F /  25.7 °C 43.4 °F /  6.3 °C 30.21in /  1022.9hPa Calm   2.0mph /  3.2km/h 29% 0.00in /  0mm SCT
17:00 78.9 °F /  26.1 °C 44.8 °F /  7.1 °C 30.20in /  1022.6hPa Calm   2.0mph /  3.2km/h 30% 0.00in /  0mm SCT
17:15 79.2 °F /  26.2 °C 43.3 °F /  6.3 °C 30.19in /  1022.2hPa Calm   2.0mph /  3.2km/h 28% 0.00in /  0mm SCT
17:30 78.6 °F /  25.9 °C 43.7 °F /  6.5 °C 30.19in /  1022.2hPa Calm   3.0mph /  4.8km/h 29% 0.00in /  0mm SCT
17:45 78.3 °F /  25.7 °C 44.3 °F /  6.8 °C 30.19in /  1022.2hPa Calm   1.0mph /  1.6km/h 30% 0.00in /  0mm SCT
18:00 77.7 °F /  25.4 °C 42.0 °F /  5.6 °C 30.19in /  1022.2hPa WNW 1.0mph /  1.6km/h 2.0mph /  3.2km/h 28% 0.00in /  0mm SCT
18:15 77.3 °F /  25.2 °C 42.5 °F /  5.8 °C 30.19in /  1022.2hPa Calm   2.0mph /  3.2km/h 29% 0.00in /  0mm SCT
18:30 76.9 °F /  24.9 °C 43.1 °F /  6.2 °C 30.18in /  1021.9hPa Calm   2.0mph /  3.2km/h 30% 0.00in /  0mm SCT
18:45 76.4 °F /  24.7 °C 42.7 °F /  5.9 °C 30.18in /  1021.9hPa Calm   3.0mph /  4.8km/h 30% 0.00in /  0mm SCT
19:00 75.6 °F /  24.2 °C 42.8 °F /  6 °C 30.18in /  1021.9hPa Calm   1.0mph /  1.6km/h 31% 0.00in /  0mm SCT
19:15 74.7 °F /  23.7 °C 43.6 °F /  6.4 °C 30.18in /  1021.9hPa Calm   1.0mph /  1.6km/h 33% 0.00in /  0mm SCT
19:30 74.0 °F /  23.3 °C 42.3 °F /  5.7 °C 30.18in /  1021.9hPa Calm   1.0mph /  1.6km/h 32% 0.00in /  0mm SCT
19:45 73.3 °F /  22.9 °C 44.0 °F /  6.7 °C 30.19in /  1022.2hPa Calm   1.0mph /  1.6km/h 35% 0.00in /  0mm SCT
20:00 72.1 °F /  22.3 °C 45.7 °F /  7.6 °C 30.18in /  1021.9hPa Calm     39% 0.00in /  0mm SCT
20:15 70.8 °F /  21.6 °C 45.3 °F /  7.4 °C 30.19in /  1022.2hPa Calm     40% 0.00in /  0mm SCT
20:30 69.5 °F /  20.8 °C 44.7 °F /  7.1 °C 30.19in /  1022.2hPa Calm     41% 0.00in /  0mm SCT
20:45 68.4 °F /  20.2 °C 45.6 °F /  7.6 °C 30.19in /  1022.2hPa Calm     44% 0.00in /  0mm SCT
21:00 67.3 °F /  19.6 °C 45.8 °F /  7.7 °C 30.20in /  1022.6hPa Calm     46% 0.00in /  0mm SCT
21:15 66.3 °F /  19.1 °C 46.0 °F /  7.8 °C 30.20in /  1022.6hPa Calm     48% 0.00in /  0mm SCT
21:30 65.3 °F /  18.5 °C 46.7 °F /  8.2 °C 30.20in /  1022.6hPa Calm     51% 0.00in /  0mm SCT
21:45 64.6 °F /  18.1 °C 47.5 °F /  8.6 °C 30.21in /  1022.9hPa Calm     54% 0.00in /  0mm SCT
22:00 64.1 °F /  17.8 °C 47.1 °F /  8.4 °C 30.22in /  1023.2hPa Calm     54% 0.00in /  0mm SCT
22:15 63.2 °F /  17.3 °C 47.2 °F /  8.4 °C 30.22in /  1023.2hPa Calm     56% 0.00in /  0mm SCT
22:30 62.7 °F /  17.1 °C 48.2 °F /  9 °C 30.24in /  1023.9hPa Calm     59% 0.00in /  0mm SCT
22:45 62.1 °F /  16.7 °C 48.9 °F /  9.4 °C 30.24in /  1023.9hPa Calm     62% 0.00in /  0mm SCT
23:00 62.0 °F /  16.7 °C 48.4 °F /  9.1 °C 30.25in /  1024.3hPa Calm     61% 0.00in /  0mm SCT
23:15 61.5 °F /  16.4 °C 49.2 °F /  9.6 °C 30.25in /  1024.3hPa Calm     64% 0.00in /  0mm SCT
23:30 60.9 °F /  16.1 °C 49.1 °F /  9.5 °C 30.25in /  1024.3hPa Calm     65% 0.00in /  0mm SCT
23:45 60.5 °F /  15.8 °C 49.5 °F /  9.7 °C 30.26in /  1024.6hPa Calm     67% 0.00in /  0mm SCT
Piedmont Bend
Compliments of Weather Underground - 4 mb